Time;durP1;ratioP1;P1;durP2;ratioP2;P2;SDS_P1;SDS_P2;PMS_P1;PMS_P2;Temp;Humidity;BMP_temperature;BMP_pressure;BME280_temperature;BME280_humidity;BME280_pressure;Samples;Min_cycle;Max_cycle;Signal;HPM_P1;HPM_P2
2021/10/04 00:01:56;;;;;;;15.03;12.80;;;;;;;14.40;86.89;99961.58;3023535;77;21027;-71
2021/10/04 00:05:58;;;;;;;15.70;11.80;;;;;;;14.36;87.05;99962.05;3023160;78;21061;-72
2021/10/04 00:10:00;;;;;;;17.27;13.60;;;;;;;14.28;87.01;99965.02;3023267;78;21017;-72
2021/10/04 00:14:02;;;;;;;15.93;13.15;;;;;;;14.09;87.28;99959.37;3021970;78;20982;-72
2021/10/04 00:18:04;;;;;;;16.27;11.93;;;;;;;13.99;87.82;99964.81;3022020;78;21056;-72
2021/10/04 00:22:06;;;;;;;15.43;12.78;;;;;;;13.83;87.80;99964.20;3023078;78;21053;-71
2021/10/04 00:26:07;;;;;;;18.45;13.78;;;;;;;13.64;88.43;99971.06;3023254;78;21021;-71
2021/10/04 00:30:10;;;;;;;20.82;13.65;;;;;;;13.46;89.50;99970.56;3023575;78;20994;-71
2021/10/04 00:34:12;;;;;;;14.87;11.18;;;;;;;13.29;90.27;99974.38;3022802;78;21057;-71
2021/10/04 00:38:13;;;;;;;15.85;14.18;;;;;;;13.17;91.17;99974.74;3022956;78;21035;-71
2021/10/04 00:42:15;;;;;;;21.48;13.25;;;;;;;13.06;91.47;99977.13;3022876;78;20954;-71
2021/10/04 00:46:17;;;;;;;16.10;13.38;;;;;;;12.97;91.71;99970.86;3022898;78;21555;-72
2021/10/04 00:50:22;;;;;;;17.27;14.25;;;;;;;13.02;91.95;99986.44;3023364;78;21209;-71
2021/10/04 00:54:24;;;;;;;15.45;13.03;;;;;;;13.17;91.41;99989.43;3023202;78;21017;-71
2021/10/04 00:58:26;;;;;;;17.92;13.70;;;;;;;13.27;90.05;99987.05;3034744;77;21042;-71
2021/10/04 01:02:28;;;;;;;17.35;13.35;;;;;;;13.37;89.08;99990.16;3073106;77;21046;-71
2021/10/04 01:06:30;;;;;;;19.42;14.10;;;;;;;13.42;89.23;99983.86;3073214;77;21586;-71
2021/10/04 01:10:31;;;;;;;16.70;11.75;;;;;;;13.44;87.61;99999.27;3073099;77;21030;-71
2021/10/04 01:14:33;;;;;;;16.15;13.08;;;;;;;13.44;86.59;100000.61;3024568;77;20998;-71
2021/10/04 01:18:35;;;;;;;13.75;11.97;;;;;;;13.41;86.36;99999.55;3010836;79;21011;-71
2021/10/04 01:22:37;;;;;;;15.78;13.90;;;;;;;13.30;85.42;100005.95;3011046;79;21042;-71
2021/10/04 01:26:39;;;;;;;17.60;13.43;;;;;;;13.28;85.84;100011.42;3025455;78;20998;-71
2021/10/04 01:30:40;;;;;;;16.10;13.50;;;;;;;13.28;86.11;100020.77;3031072;77;21915;-71
2021/10/04 01:34:42;;;;;;;17.75;12.15;;;;;;;13.27;86.24;100020.94;3031240;78;20963;-72
2021/10/04 01:38:44;;;;;;;15.03;12.68;;;;;;;13.27;86.04;100021.77;3031859;77;21010;-71
2021/10/04 01:42:46;;;;;;;20.35;12.50;;;;;;;13.28;85.72;100032.80;3029809;77;21070;-71
2021/10/04 01:46:47;;;;;;;19.35;14.23;;;;;;;13.29;85.56;100042.48;3022151;77;21020;-71
2021/10/04 01:50:49;;;;;;;21.55;16.00;;;;;;;13.25;85.61;100046.45;3021847;78;21016;-71
2021/10/04 01:54:52;;;;;;;21.93;17.12;;;;;;;13.20;86.05;100037.20;3022474;78;20978;-71
2021/10/04 01:58:54;;;;;;;20.90;16.12;;;;;;;13.16;85.80;100049.17;3022539;78;21044;-71
2021/10/04 02:02:56;;;;;;;23.30;17.90;;;;;;;13.00;86.46;100044.83;3022474;77;21029;-72
2021/10/04 02:06:58;;;;;;;17.40;14.13;;;;;;;12.95;86.67;100046.25;3021890;78;21005;-71
2021/10/04 02:11:00;;;;;;;24.18;17.07;;;;;;;12.96;87.41;100054.09;3021629;78;21075;-72
2021/10/04 02:15:03;;;;;;;25.80;18.17;;;;;;;12.99;87.51;100052.97;3021980;78;21028;-71
2021/10/04 02:19:04;;;;;;;21.35;15.90;;;;;;;12.98;87.28;100056.63;3021454;78;20982;-72
2021/10/04 02:23:07;;;;;;;22.82;16.55;;;;;;;12.97;87.50;100058.48;3021763;78;20993;-72
2021/10/04 02:27:09;;;;;;;24.32;17.67;;;;;;;13.02;87.19;100063.86;3022524;78;21085;-72
2021/10/04 02:31:10;;;;;;;20.45;15.13;;;;;;;13.03;86.35;100066.37;3021410;78;21017;-72
2021/10/04 02:35:12;;;;;;;19.85;14.90;;;;;;;12.98;86.57;100076.66;3021321;78;21044;-72
2021/10/04 02:39:13;;;;;;;23.50;16.00;;;;;;;12.96;86.78;100082.64;3021265;78;20966;-72
2021/10/04 02:43:18;;;;;;;21.40;14.40;;;;;;;12.98;86.48;100079.33;3021128;78;21037;-72
2021/10/04 02:47:18;;;;;;;17.05;14.05;;;;;;;12.96;86.21;100082.13;3021703;78;21029;-71
2021/10/04 02:51:19;;;;;;;24.10;16.65;;;;;;;12.94;86.17;100081.44;3021847;78;21072;-72
2021/10/04 02:55:22;;;;;;;22.07;16.00;;;;;;;12.94;86.40;100084.11;3020795;78;21546;-72
2021/10/04 02:59:24;;;;;;;29.60;16.75;;;;;;;12.92;86.07;100084.75;3020986;78;21046;-72
2021/10/04 03:03:26;;;;;;;23.45;16.87;;;;;;;12.91;85.95;100084.41;3022161;78;21037;-75
2021/10/04 03:07:27;;;;;;;19.60;15.53;;;;;;;12.93;86.15;100088.27;3023606;77;21013;-76
2021/10/04 03:11:31;;;;;;;24.57;16.57;;;;;;;12.81;85.95;100093.78;3014894;77;21033;-75
2021/10/04 03:15:34;;;;;;;18.20;14.13;;;;;;;12.81;86.15;100087.62;2983300;78;21080;-74
2021/10/04 03:19:35;;;;;;;20.57;16.73;;;;;;;12.69;85.16;100085.62;2969073;80;21023;-73
2021/10/04 03:23:37;;;;;;;20.60;17.02;;;;;;;12.52;86.95;100091.18;2968916;80;21005;-73
2021/10/04 03:27:38;;;;;;;19.73;15.48;;;;;;;12.42;87.30;100105.39;3000260;77;20997;-76
2021/10/04 03:31:40;;;;;;;19.92;15.50;;;;;;;12.40;87.16;100104.70;3024323;78;21436;-76
2021/10/04 03:35:41;;;;;;;28.57;16.85;;;;;;;12.37;87.24;100115.63;3025169;78;20985;-77
2021/10/04 03:39:43;;;;;;;24.57;20.20;;;;;;;12.32;87.73;100112.55;3024229;78;20982;-75
2021/10/04 03:43:45;;;;;;;27.05;20.30;;;;;;;12.30;88.27;100116.36;3024620;78;21040;-76
2021/10/04 03:47:47;;;;;;;29.12;21.25;;;;;;;12.16;89.43;100110.93;3024588;76;21021;-75
2021/10/04 03:51:48;;;;;;;24.07;18.73;;;;;;;12.05;90.64;100115.44;3024775;78;20957;-74
2021/10/04 03:55:50;;;;;;;24.52;19.07;;;;;;;12.03;91.44;100123.21;3024185;78;21009;-74
2021/10/04 03:59:51;;;;;;;28.52;18.23;;;;;;;12.08;91.32;100120.96;3027413;77;20998;-77
2021/10/04 04:03:53;;;;;;;24.15;17.40;;;;;;;12.13;90.99;100125.41;3029750;77;20959;-76
2021/10/04 04:07:54;;;;;;;25.02;18.57;;;;;;;12.16;90.33;100135.79;3030578;78;21309;-79
2021/10/04 04:11:56;;;;;;;25.08;19.12;;;;;;;12.14;90.41;100129.25;3029963;78;21298;-77
2021/10/04 04:15:58;;;;;;;26.10;18.87;;;;;;;12.19;91.07;100130.17;3029878;77;21081;-79
2021/10/04 04:19:59;;;;;;;28.90;19.52;;;;;;;12.20;91.05;100132.36;3028820;77;21320;-75
2021/10/04 04:24:00;;;;;;;23.35;19.87;;;;;;;12.34;91.59;100144.42;3029057;78;20930;-74
2021/10/04 04:28:03;;;;;;;23.67;19.65;;;;;;;12.52;90.96;100145.87;3028757;78;21663;-78
2021/10/04 04:32:09;;;;;;;25.12;18.87;;;;;;;12.63;89.79;100151.55;3029601;78;20997;-73
2021/10/04 04:36:11;;;;;;;24.50;16.70;;;;;;;12.64;88.95;100148.75;3029929;78;20957;-77
2021/10/04 04:40:17;;;;;;;23.07;17.48;;;;;;;12.59;87.92;100148.34;3029828;78;20942;-74
2021/10/04 04:44:18;;;;;;;21.97;16.10;;;;;;;12.41;88.24;100145.53;3030186;78;20999;-78
2021/10/04 04:48:19;;;;;;;20.90;15.53;;;;;;;12.30;88.46;100151.86;3029704;77;21040;-76
2021/10/04 04:52:21;;;;;;;24.47;18.92;;;;;;;12.14;88.47;100162.58;3029627;78;20989;-74
2021/10/04 04:56:23;;;;;;;30.57;21.60;;;;;;;11.94;90.24;100162.17;3030065;78;21005;-74
2021/10/04 05:00:24;;;;;;;45.98;28.60;;;;;;;11.82;91.55;100177.44;3025382;77;21002;-75
2021/10/04 05:04:26;;;;;;;51.23;29.27;;;;;;;11.90;92.32;100176.28;3025747;78;20971;-84
2021/10/04 05:08:28;;;;;;;50.65;28.07;;;;;;;12.11;92.55;100171.37;3024323;78;20999;-84
2021/10/04 05:12:30;;;;;;;34.92;23.22;;;;;;;12.35;91.78;100186.94;3024408;78;21061;-87
2021/10/04 05:16:31;;;;;;;35.73;18.95;;;;;;;12.50;90.73;100186.53;3025755;78;21390;-83
2021/10/04 05:20:34;;;;;;;40.50;24.98;;;;;;;12.61;89.44;100188.20;3027092;78;21034;-85
2021/10/04 05:24:35;;;;;;;34.78;22.82;;;;;;;12.55;88.31;100196.28;3015386;78;21068;-78
2021/10/04 05:28:37;;;;;;;37.25;20.60;;;;;;;12.63;88.74;100193.77;3018284;78;21482;-74
2021/10/04 05:32:39;;;;;;;33.33;18.90;;;;;;;12.67;89.01;100196.49;3018383;78;21068;-85
2021/10/04 05:36:41;;;;;;;41.08;18.57;;;;;;;12.83;89.41;100197.75;3017865;78;21033;-77
2021/10/04 05:40:43;;;;;;;26.02;17.35;;;;;;;12.96;89.46;100194.26;3016305;78;21405;-82
2021/10/04 05:44:45;;;;;;;22.95;16.48;;;;;;;13.00;89.36;100199.69;3015640;78;21076;-76
2021/10/04 05:48:47;;;;;;;23.60;17.20;;;;;;;13.14;89.94;100186.37;3015513;78;20958;-75
2021/10/04 05:52:49;;;;;;;24.87;18.42;;;;;;;13.28;89.98;100193.58;3013035;78;21020;-79
2021/10/04 05:56:50;;;;;;;20.25;16.93;;;;;;;13.44;89.43;100198.31;3016524;78;21037;-80
2021/10/04 06:00:52;;;;;;;25.30;15.05;;;;;;;13.63;89.30;100197.89;3017555;78;20943;-78
2021/10/04 06:04:53;;;;;;;18.35;14.85;;;;;;;13.79;89.36;100195.89;3020118;77;21066;-82
2021/10/04 06:08:56;;;;;;;23.22;16.20;;;;;;;13.98;89.64;100197.63;3018689;78;21063;-81
2021/10/04 06:12:57;;;;;;;23.60;16.80;;;;;;;14.27;90.66;100199.25;3016667;78;21013;-79
2021/10/04 06:17:00;;;;;;;24.05;17.00;;;;;;;14.64;90.60;100188.89;3017329;78;21241;-81
2021/10/04 06:21:02;;;;;;;23.12;16.80;;;;;;;14.83;89.55;100192.41;3001976;78;20967;-79
2021/10/04 06:25:06;;;;;;;20.32;16.52;;;;;;;14.90;88.89;100200.66;3007824;79;20968;-79
2021/10/04 06:29:10;;;;;;;21.40;18.48;;;;;;;15.03;88.97;100211.78;2986867;79;21010;-75
2021/10/04 06:33:13;;;;;;;23.73;16.10;;;;;;;15.14;88.18;100220.91;3007550;77;21673;-74
2021/10/04 06:37:14;;;;;;;22.10;17.52;;;;;;;15.23;88.85;100229.84;3006044;78;20970;-74
2021/10/04 06:41:16;;;;;;;23.05;16.35;;;;;;;15.32;88.65;100229.89;3004053;79;21465;-74
2021/10/04 06:45:17;;;;;;;21.15;15.03;;;;;;;15.30;87.40;100237.24;3003764;76;20952;-80
2021/10/04 06:49:19;;;;;;;16.48;13.03;;;;;;;15.28;89.16;100240.92;3006883;77;21054;-79
2021/10/04 06:53:21;;;;;;;19.37;14.60;;;;;;;15.42;89.96;100248.88;3007738;77;21073;-80
2021/10/04 06:57:23;;;;;;;16.62;12.30;;;;;;;15.67;91.04;100253.53;3009299;78;20999;-75
2021/10/04 07:01:25;;;;;;;16.35;12.18;;;;;;;15.90;90.67;100257.87;2993867;78;21022;-77
2021/10/04 07:05:27;;;;;;;17.42;12.55;;;;;;;16.04;91.16;100267.14;2999472;78;20960;-76
2021/10/04 07:09:28;;;;;;;18.75;11.57;;;;;;;16.23;91.18;100262.50;3005058;78;21384;-82
2021/10/04 07:13:30;;;;;;;15.25;10.63;;;;;;;16.47;90.21;100263.56;3004530;76;21261;-83
2021/10/04 07:17:32;;;;;;;18.45;11.35;;;;;;;16.64;89.14;100265.78;3005516;76;20930;-79
2021/10/04 07:21:34;;;;;;;18.95;12.45;;;;;;;16.75;89.56;100264.09;2988953;78;20983;-81
2021/10/04 07:25:36;;;;;;;18.65;12.20;;;;;;;17.01;87.75;100259.60;2995377;76;21084;-79
2021/10/04 07:29:37;;;;;;;14.07;12.47;;;;;;;17.20;87.88;100267.84;3004514;77;21061;-78
2021/10/04 07:33:39;;;;;;;20.35;14.18;;;;;;;17.48;88.57;100275.50;3001400;79;21009;-79
2021/10/04 07:46:05;;;;;;;20.37;14.78;;;;;;;18.38;85.66;100267.59;3050118;77;21121;-56
2021/10/04 07:50:14;;;;;;;22.07;11.95;;;;;;;18.66;84.67;100264.36;3066018;77;20921;-60
2021/10/04 07:54:20;;;;;;;19.75;12.15;;;;;;;18.82;82.83;100270.66;3078184;76;20940;-57
2021/10/04 07:58:22;;;;;;;17.20;12.23;;;;;;;18.77;82.10;100273.91;3023821;76;20987;-58
2021/10/04 08:02:24;;;;;;;15.20;11.65;;;;;;;18.76;82.84;100275.42;3086899;76;21022;-58
2021/10/04 08:06:30;;;;;;;20.70;12.15;;;;;;;18.86;82.51;100277.34;3063668;77;21014;-57
2021/10/04 08:10:30;;;;;;;17.20;12.60;;;;;;;19.04;82.03;100266.80;3085317;76;21022;-58
2021/10/04 08:14:33;;;;;;;20.00;14.33;;;;;;;19.25;82.34;100262.88;3070640;77;21729;-58
2021/10/04 08:18:35;;;;;;;18.77;11.97;;;;;;;19.52;82.47;100259.75;3067982;76;21018;-61
2021/10/04 08:22:39;;;;;;;13.93;10.03;;;;;;;19.78;80.15;100257.94;3068851;77;21022;-57
2021/10/04 08:26:40;;;;;;;30.00;13.03;;;;;;;19.97;79.73;100266.52;3069129;77;21031;-59
2021/10/04 08:30:42;;;;;;;13.05;9.60;;;;;;;20.11;78.80;100264.31;3069217;76;20979;-57
2021/10/04 08:34:44;;;;;;;15.83;10.53;;;;;;;20.21;78.87;100272.11;3069348;77;20949;-56
2021/10/04 08:38:46;;;;;;;14.07;9.55;;;;;;;20.32;78.63;100261.83;3069187;77;21094;-60
2021/10/04 08:42:48;;;;;;;15.08;10.35;;;;;;;20.47;78.78;100265.85;3068816;77;21007;-58
2021/10/04 08:46:50;;;;;;;16.52;10.65;;;;;;;20.71;77.37;100266.50;3049484;76;21066;-60
2021/10/04 08:50:51;;;;;;;16.65;10.95;;;;;;;20.87;76.61;100270.83;3083337;77;21026;-60
2021/10/04 08:54:53;;;;;;;13.78;10.55;;;;;;;20.89;75.70;100279.08;3070940;77;20948;-58
2021/10/04 08:58:54;;;;;;;11.65;9.43;;;;;;;20.80;75.66;100272.97;3057855;77;21257;-59
2021/10/04 09:03:03;;;;;;;12.40;10.08;;;;;;;20.86;75.99;100276.77;3083293;75;21023;-60
2021/10/04 09:07:05;;;;;;;15.43;10.25;;;;;;;20.98;76.61;100277.89;3083406;77;20995;-57
2021/10/04 09:11:12;;;;;;;12.80;9.73;;;;;;;21.22;76.08;100283.94;3083375;77;20995;-61
2021/10/04 09:15:37;;;;;;;11.38;9.15;;;;;;;21.37;75.59;100283.83;3082938;77;20984;-63
2021/10/04 09:19:43;;;;;;;12.88;8.68;;;;;;;21.47;74.35;100275.36;3083084;76;21023;-60
2021/10/04 09:23:48;;;;;;;22.32;9.13;;;;;;;21.57;74.53;100271.45;3083296;77;20992;-57
2021/10/04 09:27:50;;;;;;;12.47;9.95;;;;;;;21.64;74.37;100269.64;3082892;77;20960;-58
2021/10/04 09:31:53;;;;;;;10.78;8.23;;;;;;;21.77;74.51;100275.13;3083251;75;20957;-59
2021/10/04 09:35:54;;;;;;;11.97;8.73;;;;;;;21.92;73.64;100279.59;3083536;77;20972;-60
2021/10/04 09:39:56;;;;;;;11.33;10.13;;;;;;;21.97;73.34;100288.78;3083316;77;20948;-56
2021/10/04 09:44:05;;;;;;;10.93;7.40;;;;;;;21.99;73.81;100285.04;3076760;75;20991;-57
2021/10/04 09:48:14;;;;;;;13.83;7.70;;;;;;;22.17;73.19;100274.99;3064907;77;21501;-57
2021/10/04 09:52:18;;;;;;;14.60;7.87;;;;;;;22.31;73.37;100278.07;3043398;77;20921;-63
2021/10/04 09:56:26;;;;;;;13.22;9.53;;;;;;;22.51;72.29;100284.09;3075851;77;20991;-61
2021/10/04 10:00:33;;;;;;;8.58;7.12;;;;;;;22.56;72.24;100272.11;3064816;77;21081;-59
2021/10/04 10:04:34;;;;;;;;;;;;;;;22.65;71.80;100277.67;3067317;77;20932;-58
2021/10/04 10:08:36;;;;;;;8.90;7.22;;;;;;;22.70;71.09;100282.98;3065348;77;20091;-57
2021/10/04 10:12:37;;;;;;;10.13;7.37;;;;;;;22.68;71.74;100284.53;3065219;77;20922;-60
2021/10/04 10:16:41;;;;;;;9.55;6.90;;;;;;;22.80;71.70;100290.20;3064761;77;20928;-59
2021/10/04 10:20:45;;;;;;;10.98;6.95;;;;;;;22.93;71.28;100285.31;3063491;77;21007;-60
2021/10/04 10:24:49;;;;;;;9.33;8.30;;;;;;;23.05;71.20;100283.63;3055280;75;21038;-57
2021/10/04 10:29:20;;;;;;;8.90;8.00;;;;;;;23.12;71.45;100279.56;3007491;76;21023;-59
2021/10/04 10:33:50;;;;;;;11.68;8.40;;;;;;;23.19;71.05;100277.70;3065125;77;20956;-61
2021/10/04 10:37:52;;;;;;;9.95;8.90;;;;;;;23.19;70.45;100280.41;3088924;77;20972;-60
2021/10/04 10:42:35;;;;;;;11.60;7.85;;;;;;;23.21;70.35;100289.69;3088469;76;20948;-59
2021/10/04 10:46:51;;;;;;;9.73;8.18;;;;;;;23.24;71.07;100290.61;3101974;76;20995;-57
2021/10/04 10:50:52;;;;;;;10.38;6.87;;;;;;;23.25;70.70;100285.02;3103378;76;20956;-57
2021/10/04 10:54:55;;;;;;;9.65;7.60;;;;;;;23.28;70.41;100288.36;3105039;76;20948;-57
2021/10/04 10:59:02;;;;;;;11.97;8.43;;;;;;;23.30;69.33;100287.63;3104523;76;20960;-58
2021/10/04 11:03:16;;;;;;;10.98;7.80;;;;;;;23.31;70.34;100284.71;3101523;76;20979;-58
2021/10/04 11:07:55;;;;;;;9.90;7.08;;;;;;;23.35;70.19;100285.10;3104469;75;20937;-61
2021/10/04 11:11:57;;;;;;;9.03;6.95;;;;;;;23.35;70.35;100289.17;3104905;76;21038;-58
2021/10/04 11:16:13;;;;;;;8.20;7.12;;;;;;;23.30;69.75;100288.47;3105088;76;20909;-59
2021/10/04 11:20:19;;;;;;;7.50;6.65;;;;;;;23.30;69.84;100294.41;3091441;76;20917;-63
2021/10/04 11:24:22;;;;;;;13.62;7.42;;;;;;;23.32;69.61;100294.52;3104839;76;21195;-59
2021/10/04 11:28:40;;;;;;;8.78;6.75;;;;;;;23.40;70.44;100293.47;3104584;76;21002;-60
2021/10/04 11:32:42;;;;;;;11.20;7.33;;;;;;;23.54;70.88;100286.95;3104621;76;20944;-58
2021/10/04 11:36:48;;;;;;;11.18;6.90;;;;;;;23.65;70.11;100283.29;3085664;76;20990;-60
2021/10/04 11:40:51;;;;;;;44.98;10.75;;;;;;;23.75;69.09;100277.41;3104161;76;21198;-59
2021/10/04 11:44:53;;;;;;;9.45;6.53;;;;;;;23.75;69.21;100273.34;3103908;76;20999;-59
2021/10/04 11:49:11;;;;;;;13.00;6.58;;;;;;;23.75;68.46;100274.16;3103607;75;21042;-60
2021/10/04 11:53:19;;;;;;;9.75;6.35;;;;;;;23.81;67.95;100280.11;3076082;75;21065;-60
2021/10/04 11:57:24;;;;;;;;;;;;;;;23.83;68.07;100281.23;3125493;76;21133;-60
2021/10/04 12:01:29;;;;;;;8.05;5.95;;;;;;;23.81;67.79;100281.47;3122832;76;20078;-61
2021/10/04 12:05:33;;;;;;;7.97;5.60;;;;;;;23.75;67.92;100276.88;3123269;76;20994;-59
2021/10/04 12:09:35;;;;;;;8.60;6.17;;;;;;;23.76;67.17;100273.11;3098630;76;68706;-72
2021/10/04 12:13:43;;;;;;;7.10;6.08;;;;;;;23.78;67.82;100273.76;2897226;79;21018;-73
2021/10/04 12:17:46;;;;;;;7.80;5.95;;;;;;;23.88;67.81;100273.30;2896702;79;21009;-73
2021/10/04 12:21:55;;;;;;;8.30;5.83;;;;;;;23.88;67.78;100269.74;2900236;81;21005;-74
2021/10/04 12:26:00;;;;;;;7.78;5.55;;;;;;;23.91;67.18;100270.16;2915995;81;21033;-74
2021/10/04 12:30:04;;;;;;;11.28;6.35;;;;;;;23.92;67.22;100268.26;2879690;81;21046;-74
2021/10/04 12:34:26;;;;;;;6.03;5.47;;;;;;;23.95;67.35;100265.11;2852258;81;21035;-74
2021/10/04 12:38:32;;;;;;;6.62;5.92;;;;;;;24.02;67.59;100268.68;2865728;82;20968;-73
2021/10/04 12:42:37;;;;;;;7.08;5.25;;;;;;;24.16;67.15;100268.59;2883888;81;21036;-74
2021/10/04 12:46:40;;;;;;;23.92;8.33;;;;;;;24.21;67.51;100272.88;2845636;81;21066;-74
2021/10/04 12:50:45;;;;;;;5.72;4.62;;;;;;;24.30;67.13;100272.11;2851463;80;21403;-75
2021/10/04 12:54:50;;;;;;;8.68;5.97;;;;;;;24.24;66.63;100267.83;2875205;82;21019;-74
2021/10/04 12:59:07;;;;;;;10.38;5.60;;;;;;;24.24;66.88;100283.31;2843538;82;21042;-74
2021/10/04 13:03:10;;;;;;;12.10;6.72;;;;;;;24.32;66.57;100284.41;2857035;82;21012;-74
2021/10/04 13:07:12;;;;;;;6.40;5.80;;;;;;;24.34;66.40;100286.38;2854844;82;21422;-74
2021/10/04 13:11:17;;;;;;;8.55;6.17;;;;;;;24.34;66.36;100294.53;2929134;79;21037;-76
2021/10/04 13:28:12;;;;;;;6.12;4.10;;;;;;;24.71;65.75;100297.15;3007927;76;21106;-61
2021/10/04 13:32:16;;;;;;;7.85;6.03;;;;;;;24.86;65.62;100303.66;3094861;76;21007;-61
2021/10/04 13:36:19;;;;;;;6.50;5.62;;;;;;;24.95;65.26;100299.62;3088136;75;21065;-60
2021/10/04 13:40:23;;;;;;;10.38;6.47;;;;;;;24.94;65.05;100306.95;3087938;77;20905;-60
2021/10/04 13:44:30;;;;;;;7.47;5.97;;;;;;;24.76;66.55;100304.99;3115206;76;20944;-61
2021/10/04 13:48:36;;;;;;;8.38;5.95;;;;;;;24.80;65.41;100308.94;3073316;76;21008;-61
2021/10/04 13:52:38;;;;;;;7.15;5.10;;;;;;;24.79;65.62;100313.25;3058800;78;20978;-61
2021/10/04 13:56:40;;;;;;;6.03;5.33;;;;;;;24.76;65.84;100319.11;3111042;76;21395;-61
2021/10/04 14:00:41;;;;;;;8.30;6.60;;;;;;;24.64;65.76;100318.43;3115537;76;20975;-59
2021/10/04 14:04:45;;;;;;;8.53;5.83;;;;;;;24.55;66.36;100322.98;3115990;75;21014;-59
2021/10/04 14:48:01;;;;;;;8.98;7.22;;;;;;;23.58;68.87;100331.31;3010776;76;21015;-62
2021/10/04 14:52:04;;;;;;;8.95;7.10;;;;;;;23.56;69.26;100334.26;3020995;78;21006;-61
2021/10/04 14:56:06;;;;;;;11.48;7.42;;;;;;;23.48;69.48;100342.09;3020139;78;20920;-59
2021/10/04 15:00:12;;;;;;;8.03;6.45;;;;;;;23.40;69.97;100340.97;3020974;79;21077;-63
2021/10/04 15:04:18;;;;;;;8.58;6.95;;;;;;;23.35;70.50;100336.66;3064084;77;21010;-62
2021/10/04 15:08:18;;;;;;;10.00;7.33;;;;;;;23.31;70.79;100335.42;3063456;77;20983;-60
2021/10/04 15:12:20;;;;;;;8.95;7.30;;;;;;;23.24;71.22;100334.03;3063984;77;21043;-58
2021/10/04 15:16:23;;;;;;;9.65;6.58;;;;;;;23.09;71.51;100342.37;3063171;77;21038;-59
2021/10/04 15:20:28;;;;;;;6.78;6.03;;;;;;;22.93;71.84;100349.86;3063502;76;20984;-60
2021/10/04 15:24:33;;;;;;;7.25;6.05;;;;;;;22.80;72.48;100355.28;3063408;77;21043;-59
2021/10/04 15:28:46;;;;;;;6.95;6.25;;;;;;;22.67;72.65;100351.48;3055515;77;21013;-59
2021/10/04 15:32:48;;;;;;;7.83;5.65;;;;;;;22.57;72.62;100361.05;2861765;78;68343;-65
2021/10/04 15:36:50;;;;;;;8.60;6.33;;;;;;;22.35;72.85;100366.56;2886072;81;21069;-65
2021/10/04 15:40:55;;;;;;;8.68;7.35;;;;;;;22.12;73.81;100375.84;2875191;82;21018;-65
2021/10/04 15:44:57;;;;;;;8.88;7.37;;;;;;;21.95;74.66;100368.54;2876121;82;21054;-65
2021/10/04 15:48:58;;;;;;;9.50;7.15;;;;;;;21.79;75.30;100378.64;2843964;83;20990;-67
2021/10/04 15:53:01;;;;;;;6.17;5.53;;;;;;;21.64;75.93;100380.08;2918306;81;21040;-67
2021/10/04 15:57:04;;;;;;;8.10;7.30;;;;;;;21.48;76.37;100381.71;2918310;81;21052;-70
2021/10/04 16:01:09;;;;;;;9.88;7.60;;;;;;;21.32;76.95;100373.36;2918532;81;23413;-70
2021/10/04 16:05:11;;;;;;;15.57;8.23;;;;;;;21.18;77.50;100382.70;2919032;81;21024;-67
2021/10/04 16:09:13;;;;;;;12.63;8.10;;;;;;;21.10;77.95;100380.14;2918587;81;21048;-68
2021/10/04 16:13:14;;;;;;;9.48;8.18;;;;;;;20.99;78.31;100378.78;2918922;81;20984;-67
2021/10/04 16:17:16;;;;;;;12.88;9.63;;;;;;;20.91;78.73;100381.09;2918752;81;21020;-68
2021/10/04 16:21:18;;;;;;;10.53;6.78;;;;;;;20.75;79.37;100392.11;2917377;81;20961;-67
2021/10/04 16:25:19;;;;;;;8.03;6.62;;;;;;;20.67;79.61;100399.31;2918974;81;20989;-68
2021/10/04 16:29:21;;;;;;;8.10;7.12;;;;;;;20.60;79.93;100404.31;2918546;81;21095;-68
2021/10/04 16:33:23;;;;;;;8.68;6.40;;;;;;;20.57;80.25;100410.92;2925249;80;21043;-67
2021/10/04 16:37:24;;;;;;;10.18;6.72;;;;;;;20.51;80.67;100414.39;2926540;81;21043;-67
2021/10/04 16:41:26;;;;;;;7.62;5.72;;;;;;;20.45;80.87;100421.38;2926974;81;20993;-68
2021/10/04 16:45:28;;;;;;;11.85;7.33;;;;;;;20.39;81.05;100428.36;2927032;81;20992;-68
2021/10/04 16:49:31;;;;;;;9.40;7.65;;;;;;;20.37;80.92;100435.81;2925533;81;21054;-68
2021/10/04 16:53:33;;;;;;;13.95;8.23;;;;;;;20.36;81.07;100434.67;2927103;81;21043;-67
2021/10/04 16:57:35;;;;;;;16.70;8.63;;;;;;;20.38;80.83;100446.13;2927005;81;21051;-67
2021/10/04 17:01:36;;;;;;;22.02;9.63;;;;;;;20.37;80.90;100445.27;2927199;81;21063;-68
2021/10/04 17:05:38;;;;;;;15.50;9.35;;;;;;;20.31;81.09;100448.72;2926893;81;21036;-67
2021/10/04 17:09:39;;;;;;;18.17;11.73;;;;;;;20.36;82.32;100444.13;2926627;81;20949;-67
2021/10/04 17:13:41;;;;;;;25.05;12.15;;;;;;;20.31;82.41;100441.97;2927082;81;21039;-67
2021/10/04 17:17:43;;;;;;;13.00;10.45;;;;;;;20.29;82.67;100440.47;2927029;81;21078;-67
2021/10/04 17:21:45;;;;;;;11.68;8.28;;;;;;;20.27;82.65;100450.13;2925451;81;21003;-66
2021/10/04 17:25:46;;;;;;;9.73;8.53;;;;;;;20.17;82.73;100442.80;2927427;81;21051;-66
2021/10/04 17:29:49;;;;;;;13.65;9.60;;;;;;;20.06;82.89;100447.64;2923132;81;20988;-66
2021/10/04 17:33:50;;;;;;;28.80;12.37;;;;;;;20.01;83.16;100452.73;2879950;80;21538;-65
2021/10/04 17:37:52;;;;;;;11.45;6.47;;;;;;;20.02;83.17;100459.81;2915488;80;21030;-69
2021/10/04 17:41:54;;;;;;;9.03;6.35;;;;;;;19.92;82.76;100457.37;2864663;81;21062;-68
2021/10/04 17:45:55;;;;;;;10.20;8.00;;;;;;;19.89;82.70;100448.80;2863793;81;21038;-68
2021/10/04 17:49:57;;;;;;;13.43;7.60;;;;;;;19.84;82.60;100452.86;2864114;83;21038;-68
2021/10/04 17:53:59;;;;;;;9.30;5.10;;;;;;;19.79;82.51;100449.88;2864330;82;21066;-68
2021/10/04 17:58:01;;;;;;;8.85;6.22;;;;;;;19.78;82.52;100432.53;2864111;83;21074;-68
2021/10/04 18:02:03;;;;;;;8.03;6.17;;;;;;;19.82;82.22;100433.31;2864301;82;20999;-68
2021/10/04 18:06:05;;;;;;;8.58;6.97;;;;;;;19.83;81.73;100429.59;2863856;83;21037;-68
2021/10/04 18:10:09;;;;;;;15.00;7.67;;;;;;;19.82;81.35;100430.61;2863736;81;20991;-68
2021/10/04 18:14:11;;;;;;;10.95;7.12;;;;;;;19.75;81.00;100430.17;2864298;83;21507;-68
2021/10/04 18:18:13;;;;;;;10.58;6.45;;;;;;;19.62;80.74;100443.80;2864039;81;21034;-68
2021/10/04 18:22:15;;;;;;;9.25;7.33;;;;;;;19.52;80.64;100445.89;2864161;83;21487;-68
2021/10/04 18:26:17;;;;;;;15.20;9.50;;;;;;;19.31;80.86;100459.53;2863870;83;21003;-68
2021/10/04 18:38:46;;;;;;;16.67;8.03;;;;;;;18.69;83.23;100466.59;3015860;77;21272;-59
2021/10/04 18:42:49;;;;;;;9.35;6.62;;;;;;;18.52;83.72;100472.03;2955957;79;21002;-58
2021/10/04 18:46:51;;;;;;;12.07;8.55;;;;;;;18.37;84.45;100467.87;2955539;80;21055;-59
2021/10/04 18:50:53;;;;;;;10.10;6.97;;;;;;;18.24;85.02;100473.80;2955764;80;20983;-58
2021/10/04 18:54:57;;;;;;;13.00;8.33;;;;;;;18.04;86.54;100470.63;2955281;78;20959;-57
2021/10/04 18:58:59;;;;;;;14.55;8.25;;;;;;;17.89;88.34;100472.33;2955730;78;20956;-58
2021/10/04 19:03:01;;;;;;;13.78;9.20;;;;;;;17.76;88.76;100476.36;2955778;80;21022;-59
2021/10/04 19:07:04;;;;;;;11.28;7.83;;;;;;;17.54;88.90;100483.23;2956005;78;20948;-58
2021/10/04 19:11:08;;;;;;;15.58;10.70;;;;;;;17.40;89.63;100491.45;2955916;78;20991;-57
2021/10/04 19:15:53;;;;;;;10.95;8.18;;;;;;;17.25;91.35;100493.95;2955582;80;20943;-58
2021/10/04 19:19:55;;;;;;;10.05;8.45;;;;;;;17.17;93.79;100484.52;2955819;80;20994;-57
2021/10/04 19:23:57;;;;;;;11.65;9.68;;;;;;;17.24;95.10;100481.00;2956052;80;20983;-58
2021/10/04 19:28:40;;;;;;;15.70;9.25;;;;;;;17.41;95.21;100486.41;2956028;80;21030;-58
2021/10/04 19:32:43;;;;;;;12.43;9.10;;;;;;;17.55;94.70;100479.53;2955873;80;20916;-57
2021/10/04 19:36:52;;;;;;;11.12;9.10;;;;;;;17.72;94.43;100470.98;2955579;80;20924;-58
2021/10/04 19:40:54;;;;;;;10.03;8.08;;;;;;;17.85;93.89;100469.95;2962358;80;20975;-57
2021/10/04 19:44:56;;;;;;;13.08;8.83;;;;;;;17.95;93.59;100463.56;2965163;80;20939;-58
2021/10/04 19:53:51;;;;;;;10.13;9.05;;;;;;;18.07;93.17;100472.16;2964920;80;20991;-57